createdAt,value
2022-09-18T00:02:37.822Z,0
2022-09-18T00:04:17.583Z,0
2022-09-18T00:05:57.352Z,0
2022-09-18T00:07:37.117Z,0
2022-09-18T00:09:16.868Z,0
2022-09-18T00:10:56.626Z,0
2022-09-18T00:12:36.407Z,0
2022-09-18T00:14:16.162Z,0
2022-09-18T00:15:55.919Z,0
2022-09-18T00:17:35.685Z,0
2022-09-18T00:19:15.455Z,0
2022-09-18T00:20:55.207Z,0
2022-09-18T00:22:34.969Z,0
2022-09-18T00:24:14.737Z,0
2022-09-18T00:25:54.519Z,0
2022-09-18T00:27:34.283Z,0
2022-09-18T00:32:33.572Z,0
2022-09-18T00:34:13.332Z,0
2022-09-18T00:35:53.094Z,0
2022-09-18T00:39:12.624Z,0
2022-09-18T00:40:52.382Z,0
2022-09-18T00:42:32.155Z,0
2022-09-18T00:44:11.914Z,0
2022-09-18T00:45:51.666Z,0
2022-09-18T00:47:31.451Z,0
2022-09-18T00:49:11.199Z,0
2022-09-18T00:50:50.958Z,0
2022-09-18T00:52:30.722Z,0
2022-09-18T00:54:10.495Z,0
2022-09-18T00:55:50.253Z,0
2022-09-18T00:57:30.018Z,0
2022-09-18T00:59:09.773Z,0
2022-09-18T01:00:49.554Z,0
2022-09-18T01:02:29.306Z,0
2022-09-18T01:04:09.080Z,0
2022-09-18T01:05:48.830Z,0
2022-09-18T01:09:08.372Z,0
2022-09-18T01:10:48.136Z,0
2022-09-18T01:12:27.895Z,0
2022-09-18T01:14:07.673Z,0
2022-09-18T01:15:47.433Z,0
2022-09-18T01:17:27.187Z,0
2022-09-18T01:19:06.989Z,0
2022-09-18T01:20:46.715Z,0
2022-09-18T01:22:26.485Z,0
2022-09-18T01:24:06.277Z,0
2022-09-18T01:25:46.014Z,0
2022-09-18T01:27:25.862Z,0
2022-09-18T01:29:05.549Z,0
2022-09-18T01:30:45.293Z,0
2022-09-18T01:32:25.076Z,0
2022-09-18T01:34:04.842Z,0
2022-09-18T01:35:44.591Z,0
2022-09-18T01:37:24.353Z,0
2022-09-18T01:39:04.136Z,0
2022-09-18T01:40:43.877Z,0
2022-09-18T01:42:23.659Z,0
2022-09-18T01:44:03.415Z,0
2022-09-18T01:45:43.181Z,0
2022-09-18T01:47:22.947Z,0
2022-09-18T01:49:02.750Z,0
2022-09-18T01:50:42.470Z,0
2022-09-18T01:52:22.236Z,0
2022-09-18T01:54:02.004Z,0
2022-09-18T01:55:41.768Z,0
2022-09-18T01:57:21.529Z,0
2022-09-18T01:59:01.292Z,0
2022-09-18T02:00:41.056Z,0
2022-09-18T02:02:20.827Z,0
2022-09-18T02:04:00.577Z,0
2022-09-18T02:05:40.340Z,0
2022-09-18T02:07:20.096Z,0
2022-09-18T02:08:59.864Z,0
2022-09-18T02:10:39.628Z,0
2022-09-18T02:12:19.404Z,0
2022-09-18T02:15:38.926Z,0
2022-09-18T02:17:18.697Z,0
2022-09-18T02:18:58.476Z,0
2022-09-18T02:20:38.221Z,0
2022-09-18T02:22:17.976Z,0
2022-09-18T02:23:57.753Z,0
2022-09-18T02:25:37.515Z,0
2022-09-18T02:28:57.043Z,0
2022-09-18T02:30:36.800Z,0
2022-09-18T02:32:16.556Z,0
2022-09-18T02:33:56.315Z,0
2022-09-18T02:35:36.098Z,0
2022-09-18T02:37:15.851Z,0
2022-09-18T02:38:55.669Z,0
2022-09-18T02:40:35.383Z,0
2022-09-18T02:42:15.133Z,0
2022-09-18T02:43:54.912Z,0
2022-09-18T02:45:34.683Z,0
2022-09-18T02:47:14.450Z,0
2022-09-18T02:48:54.218Z,0
2022-09-18T02:50:33.970Z,0
2022-09-18T02:52:13.733Z,0
2022-09-18T02:53:53.546Z,0
2022-09-18T02:55:33.268Z,0
2022-09-18T02:57:13.030Z,0
2022-09-18T02:58:52.788Z,0
2022-09-18T03:00:32.544Z,0
2022-09-18T03:03:52.083Z,0
2022-09-18T03:05:31.844Z,0
2022-09-18T03:07:11.600Z,0
2022-09-18T03:08:51.364Z,0
2022-09-18T03:10:31.123Z,0
2022-09-18T03:12:10.892Z,0
2022-09-18T03:13:50.656Z,0
2022-09-18T03:15:30.414Z,0
2022-09-18T03:17:10.196Z,0
2022-09-18T03:18:49.946Z,0
2022-09-18T03:20:29.720Z,0
2022-09-18T03:22:09.496Z,0
2022-09-18T03:23:49.234Z,0
2022-09-18T03:25:28.998Z,0
2022-09-18T03:28:48.527Z,0
2022-09-18T03:30:28.292Z,0
2022-09-18T03:32:08.071Z,0
2022-09-18T03:33:47.826Z,0
2022-09-18T03:35:27.583Z,0
2022-09-18T03:38:47.115Z,0
2022-09-18T03:40:26.881Z,0
2022-09-18T03:42:06.648Z,0
2022-09-18T03:43:46.405Z,0
2022-09-18T03:45:26.181Z,0
2022-09-18T03:47:05.933Z,0
2022-09-18T03:48:45.696Z,0
2022-09-18T03:50:25.454Z,0
2022-09-18T03:52:05.223Z,0
2022-09-18T03:53:44.991Z,0
2022-09-18T03:55:24.747Z,0
2022-09-18T03:57:04.521Z,0
2022-09-18T03:58:44.280Z,0
2022-09-18T04:00:24.055Z,0
2022-09-18T04:02:03.818Z,0
2022-09-18T04:05:23.330Z,0
2022-09-18T04:07:03.111Z,0
2022-09-18T04:08:42.868Z,0
2022-09-18T04:10:22.634Z,0
2022-09-18T04:12:02.381Z,0
2022-09-18T04:13:42.154Z,0
2022-09-18T04:15:21.913Z,0
2022-09-18T04:17:01.688Z,0
2022-09-18T04:18:41.450Z,0
2022-09-18T04:20:21.229Z,0
2022-09-18T04:22:00.972Z,0
2022-09-18T04:23:40.743Z,0
2022-09-18T04:25:20.514Z,0
2022-09-18T04:27:00.272Z,0
2022-09-18T04:28:40.030Z,0
2022-09-18T04:30:19.814Z,0
2022-09-18T04:31:59.571Z,0
2022-09-18T04:33:39.330Z,0
2022-09-18T04:35:19.083Z,0
2022-09-18T04:38:38.661Z,0
2022-09-18T04:40:18.371Z,0
2022-09-18T04:41:58.147Z,0
2022-09-18T04:43:37.909Z,0
2022-09-18T04:46:57.430Z,0
2022-09-18T04:48:37.185Z,0
2022-09-18T04:50:16.954Z,0
2022-09-18T04:51:56.736Z,0
2022-09-18T04:53:36.494Z,0
2022-09-18T04:55:16.250Z,0
2022-09-18T04:56:56.024Z,0
2022-09-18T04:58:35.784Z,0
2022-09-18T05:00:15.560Z,0
2022-09-18T05:01:55.324Z,0
2022-09-18T05:03:35.076Z,0
2022-09-18T05:05:14.828Z,0
2022-09-18T05:06:54.593Z,0.01
2022-09-18T05:08:34.395Z,0
2022-09-18T05:10:14.137Z,0
2022-09-18T05:11:53.890Z,0.01
2022-09-18T05:13:33.650Z,0.02
2022-09-18T05:15:13.425Z,0.02
2022-09-18T05:16:53.177Z,0.03
2022-09-18T05:18:32.951Z,0.03
2022-09-18T05:20:12.712Z,0.01
2022-09-18T05:21:52.471Z,0
2022-09-18T05:23:32.235Z,0.01
2022-09-18T05:25:12.008Z,0.02
2022-09-18T05:26:51.766Z,0.01
2022-09-18T05:28:31.539Z,0.01
2022-09-18T05:30:11.298Z,0.01
2022-09-18T05:31:51.064Z,0.02
2022-09-18T05:33:30.830Z,0.02
2022-09-18T05:35:10.597Z,0.04
2022-09-18T05:36:50.364Z,0.05
2022-09-18T05:38:30.112Z,0.07
2022-09-18T05:40:09.887Z,0.1
2022-09-18T05:41:49.649Z,0.12
2022-09-18T05:43:29.395Z,0.12
2022-09-18T05:45:09.181Z,0.17
2022-09-18T05:46:48.944Z,0.13
2022-09-18T05:48:28.697Z,0.11
2022-09-18T05:50:08.450Z,0.11
2022-09-18T05:51:48.231Z,0.08
2022-09-18T05:53:27.986Z,0.1
2022-09-18T05:55:07.749Z,0.08
2022-09-18T05:56:47.535Z,0.06
2022-09-18T05:58:27.299Z,0.04
2022-09-18T06:00:07.062Z,0.04
2022-09-18T06:01:46.817Z,0.07
2022-09-18T06:03:26.584Z,0.15
2022-09-18T06:05:06.328Z,0.18
2022-09-18T06:08:25.873Z,0.08
2022-09-18T06:10:05.632Z,0.15
2022-09-18T06:11:45.395Z,0.21
2022-09-18T06:13:25.154Z,0.21
2022-09-18T06:15:04.924Z,0.2
2022-09-18T06:16:44.685Z,0.28
2022-09-18T06:18:24.441Z,0.24
2022-09-18T06:20:04.205Z,0.31
2022-09-18T06:23:23.731Z,0.23
2022-09-18T06:25:03.512Z,0.23
2022-09-18T06:28:23.029Z,0.22
2022-09-18T06:30:02.798Z,0.48
2022-09-18T06:31:42.563Z,0.31
2022-09-18T06:33:22.327Z,0.26
2022-09-18T06:35:02.131Z,0.33
2022-09-18T06:38:21.616Z,0.64
2022-09-18T06:43:20.922Z,0.55
2022-09-18T06:45:00.679Z,0.55
2022-09-18T06:46:40.460Z,0.52
2022-09-18T06:48:20.210Z,0.52
2022-09-18T06:49:59.986Z,0.5
2022-09-18T06:51:39.732Z,0.44
2022-09-18T06:53:19.499Z,0.46
2022-09-18T06:56:39.055Z,0.43
2022-09-18T06:59:58.551Z,0.41
2022-09-18T07:01:38.315Z,0.44
2022-09-18T07:03:18.103Z,0.4
2022-09-18T07:04:57.901Z,0.38
2022-09-18T07:06:37.620Z,0.38
2022-09-18T07:08:17.385Z,0.38
2022-09-18T07:09:57.151Z,0.37
2022-09-18T07:11:36.911Z,0.36
2022-09-18T07:13:16.671Z,0.36
2022-09-18T07:14:56.473Z,0.35
2022-09-18T07:18:15.952Z,0.34
2022-09-18T07:19:55.721Z,0.33
2022-09-18T07:21:35.493Z,0.31
2022-09-18T07:23:15.254Z,0.33
2022-09-18T07:24:55.033Z,0.29
2022-09-18T07:26:34.787Z,0.31
2022-09-18T07:28:14.542Z,0.3
2022-09-18T07:29:54.331Z,0.29
2022-09-18T07:31:34.069Z,0.29
2022-09-18T07:33:13.846Z,0.29
2022-09-18T07:34:53.602Z,0.28
2022-09-18T07:36:33.376Z,0.26
2022-09-18T07:38:13.127Z,0.27
2022-09-18T07:39:52.883Z,0.26
2022-09-18T07:41:32.653Z,0.26
2022-09-18T07:43:12.486Z,0.26
2022-09-18T07:44:52.172Z,0.26
2022-09-18T07:46:31.960Z,0.24
2022-09-18T07:49:51.468Z,0.24
2022-09-18T07:51:31.227Z,0.19
2022-09-18T07:53:11.010Z,0.22
2022-09-18T07:54:50.757Z,0.24
2022-09-18T07:56:30.526Z,0.23
2022-09-18T07:58:10.325Z,0.24
2022-09-18T07:59:50.063Z,0.23
2022-09-18T08:01:29.822Z,0.24
2022-09-18T08:03:09.575Z,0.22
2022-09-18T08:04:49.341Z,0.22
2022-09-18T08:06:29.108Z,0.27
2022-09-18T08:08:08.871Z,0.2
2022-09-18T08:09:48.633Z,0.2
2022-09-18T08:11:28.412Z,0.2
2022-09-18T08:13:08.158Z,0.21
2022-09-18T08:14:47.948Z,0.2
2022-09-18T08:18:07.472Z,0.18
2022-09-18T08:19:47.229Z,0.2
2022-09-18T08:21:27.058Z,0.18
2022-09-18T08:23:06.755Z,0.2
2022-09-18T08:24:46.527Z,0.19
2022-09-18T08:26:26.287Z,0.19
2022-09-18T08:28:06.036Z,0.18
2022-09-18T08:29:45.802Z,0.18
2022-09-18T08:31:25.613Z,0.18
2022-09-18T08:33:05.334Z,0.18
2022-09-18T08:34:45.103Z,0.18
2022-09-18T08:36:24.938Z,0.01
2022-09-18T08:38:04.622Z,0.01
2022-09-18T08:39:44.385Z,0.05
2022-09-18T08:41:24.206Z,0.15
2022-09-18T08:43:03.920Z,0.15
2022-09-18T08:44:43.683Z,0.11
2022-09-18T08:46:23.441Z,0.1
2022-09-18T08:49:42.976Z,0.12
2022-09-18T08:51:22.734Z,0.11
2022-09-18T08:53:02.515Z,0.11
2022-09-18T08:54:42.271Z,0.11
2022-09-18T08:56:22.040Z,0.1
2022-09-18T08:58:01.840Z,0.12
2022-09-18T08:59:41.557Z,0.12
2022-09-18T09:01:21.381Z,0.09
2022-09-18T09:03:01.094Z,0.08
2022-09-18T09:04:40.853Z,0.12
2022-09-18T09:06:20.621Z,0.12
2022-09-18T09:08:00.383Z,0.08
2022-09-18T09:09:40.128Z,0.12
2022-09-18T09:11:19.904Z,0.09
2022-09-18T09:12:59.657Z,0.09
2022-09-18T09:14:39.425Z,0.1
2022-09-18T09:16:19.280Z,0.09
2022-09-18T09:17:59.136Z,0.09
2022-09-18T09:19:38.840Z,0.09
2022-09-18T09:21:18.636Z,0.1
2022-09-18T09:22:58.346Z,0.12
2022-09-18T09:24:38.026Z,0.1
2022-09-18T09:26:17.777Z,0.09
2022-09-18T09:27:57.555Z,0.09
2022-09-18T09:29:37.308Z,0.1
2022-09-18T09:31:17.066Z,0.1
2022-09-18T09:32:56.846Z,0.1
2022-09-18T09:34:36.597Z,0.12
2022-09-18T09:36:16.382Z,0.08
2022-09-18T09:37:56.129Z,0.08
2022-09-18T09:39:35.899Z,0.08
2022-09-18T09:41:15.664Z,0.09
2022-09-18T09:42:55.412Z,0.1
2022-09-18T09:44:35.176Z,0.09
2022-09-18T09:46:14.944Z,0.08
2022-09-18T09:47:54.707Z,0.1
2022-09-18T09:49:34.472Z,0.12
2022-09-18T09:52:54.008Z,0.08
2022-09-18T09:54:33.763Z,0.09
2022-09-18T09:56:13.526Z,0.1
2022-09-18T09:57:53.300Z,0.1
2022-09-18T09:59:33.056Z,0.1
2022-09-18T10:01:12.812Z,0.09
2022-09-18T10:02:52.593Z,0.09
2022-09-18T10:04:32.362Z,0.09
2022-09-18T10:06:12.125Z,0.09
2022-09-18T10:07:51.877Z,0.09
2022-09-18T10:09:31.642Z,0.09
2022-09-18T10:12:51.176Z,0.09
2022-09-18T10:16:10.694Z,0.1
2022-09-18T10:17:50.457Z,0.1
2022-09-18T10:19:30.215Z,0.09
2022-09-18T10:21:09.978Z,0.08
2022-09-18T10:22:49.740Z,0.09
2022-09-18T10:24:29.501Z,0.1
2022-09-18T10:26:09.270Z,0.09
2022-09-18T10:27:49.045Z,0.11
2022-09-18T10:29:28.812Z,0.09
2022-09-18T10:31:08.565Z,0.08
2022-09-18T10:32:48.344Z,0.08
2022-09-18T10:34:28.112Z,0.07
2022-09-18T10:36:07.857Z,0.1
2022-09-18T10:37:47.626Z,0.1
2022-09-18T10:39:27.399Z,0.09
2022-09-18T10:41:07.172Z,0.09
2022-09-18T10:42:46.929Z,0.09
2022-09-18T10:44:26.704Z,0.08
2022-09-18T10:46:06.433Z,0.08
2022-09-18T10:47:46.227Z,0.07
2022-09-18T10:49:25.964Z,0.07
2022-09-18T10:51:05.748Z,0.09
2022-09-18T10:52:45.500Z,0.08
2022-09-18T10:54:25.265Z,0.08
2022-09-18T10:57:44.793Z,0.1
2022-09-18T10:59:24.572Z,0.08
2022-09-18T11:01:04.316Z,0.07
2022-09-18T11:02:44.093Z,0.08
2022-09-18T11:04:23.853Z,0.07
2022-09-18T11:06:03.619Z,0.08
2022-09-18T11:07:43.373Z,0.08
2022-09-18T11:09:23.157Z,0.08
2022-09-18T11:11:02.906Z,0.08
2022-09-18T11:12:42.674Z,0.09
2022-09-18T11:14:22.444Z,0.1
2022-09-18T11:16:02.197Z,0.09
2022-09-18T11:17:41.967Z,0.09
2022-09-18T11:19:21.716Z,0.08
2022-09-18T11:21:01.483Z,0.08
2022-09-18T11:22:41.259Z,0.08
2022-09-18T11:24:21.018Z,0.09
2022-09-18T11:26:00.778Z,0.11
2022-09-18T11:27:40.544Z,0.07
2022-09-18T11:29:20.311Z,0.08
2022-09-18T11:31:00.071Z,0.09
2022-09-18T11:32:39.842Z,0.09
2022-09-18T11:34:19.627Z,0.08
2022-09-18T11:37:39.133Z,0.07
2022-09-18T11:39:18.881Z,0.08
2022-09-18T11:42:38.432Z,0.08
2022-09-18T11:44:18.187Z,0.08
2022-09-18T11:45:57.952Z,0.09
2022-09-18T11:47:37.745Z,0.08
2022-09-18T11:49:17.487Z,0.08
2022-09-18T11:50:57.242Z,0.08
2022-09-18T11:52:36.995Z,0.08
2022-09-18T11:54:16.760Z,0.08
2022-09-18T11:55:56.531Z,0.07
2022-09-18T11:57:36.298Z,0.07
2022-09-18T11:59:16.076Z,0.07
2022-09-18T12:00:55.822Z,0.09
2022-09-18T12:02:35.593Z,0.08
2022-09-18T12:04:15.343Z,0.08
2022-09-18T12:05:55.116Z,0.08
2022-09-18T12:07:48.054Z,0.08
2022-09-18T12:09:13.279Z,0.07
2022-09-18T12:10:53.059Z,0.08
2022-09-18T12:12:32.806Z,0.07
2022-09-18T12:14:12.563Z,0.07
2022-09-18T12:15:52.338Z,0.07
2022-09-18T12:17:32.105Z,0.07
2022-09-18T12:19:11.850Z,0.07
2022-09-18T12:20:51.624Z,0.07
2022-09-18T12:22:31.391Z,0.08
2022-09-18T12:24:11.142Z,0.07
2022-09-18T12:25:50.913Z,0.07
2022-09-18T12:27:30.676Z,0.07
2022-09-18T12:29:10.437Z,0.06
2022-09-18T12:30:50.195Z,0.07
2022-09-18T12:32:29.982Z,0.08
2022-09-18T12:34:09.720Z,0.07
2022-09-18T12:35:49.475Z,0.07
2022-09-18T12:37:29.308Z,0.07
2022-09-18T12:39:09.683Z,0.07
2022-09-18T12:40:49.454Z,0.07
2022-09-18T12:42:29.208Z,0.08
2022-09-18T12:44:08.955Z,0.06
2022-09-18T12:45:48.733Z,0.07
2022-09-18T12:47:28.499Z,0.07
2022-09-18T12:49:08.245Z,0.06
2022-09-18T12:50:48.018Z,0.06
2022-09-18T12:52:27.776Z,0.07
2022-09-18T12:54:07.553Z,0.08
2022-09-18T12:57:27.065Z,0.07
2022-09-18T12:59:06.837Z,0.06
2022-09-18T13:00:46.593Z,0.07
2022-09-18T13:02:26.365Z,0.07
2022-09-18T13:04:06.125Z,0.06
2022-09-18T13:05:45.889Z,0.07
2022-09-18T13:07:25.652Z,0.07
2022-09-18T13:09:05.416Z,0.07
2022-09-18T13:10:45.177Z,0.07
2022-09-18T13:12:24.962Z,0.07
2022-09-18T13:14:04.729Z,0.07
2022-09-18T13:17:24.955Z,0.07
2022-09-18T13:19:04.798Z,0.07
2022-09-18T13:20:44.640Z,0.08
2022-09-18T13:22:24.360Z,0.07
2022-09-18T13:24:04.045Z,0.06
2022-09-18T13:25:43.900Z,0.07
2022-09-18T13:27:23.667Z,0.08
2022-09-18T13:29:03.421Z,0.06
2022-09-18T13:30:43.150Z,0.07
2022-09-18T13:32:22.986Z,0.06
2022-09-18T13:34:02.716Z,0.07
2022-09-18T13:35:42.484Z,0.07
2022-09-18T13:37:22.232Z,0.08
2022-09-18T13:39:01.858Z,0.07
2022-09-18T13:40:41.625Z,0.06
2022-09-18T13:42:21.396Z,0.07
2022-09-18T13:44:01.155Z,0.07
2022-09-18T13:45:40.974Z,0.06
2022-09-18T13:47:20.786Z,0.07
2022-09-18T13:49:00.449Z,0.08
2022-09-18T13:50:40.193Z,0.06
2022-09-18T13:52:19.978Z,0.07
2022-09-18T13:53:59.725Z,0.06
2022-09-18T13:55:39.488Z,0.07
2022-09-18T13:57:19.260Z,0.05
2022-09-18T13:58:59.017Z,0.07
2022-09-18T14:00:38.780Z,0.08
2022-09-18T14:02:18.565Z,0.06
2022-09-18T14:03:58.313Z,0.07
2022-09-18T14:05:38.071Z,0.07
2022-09-18T14:07:17.845Z,0.06
2022-09-18T14:08:57.602Z,0.07
2022-09-18T14:10:37.373Z,0.07
2022-09-18T14:12:17.147Z,0.05
2022-09-18T14:13:56.892Z,0.07
2022-09-18T14:15:36.649Z,0.07
2022-09-18T14:17:16.425Z,0.07
2022-09-18T14:18:56.185Z,0.07
2022-09-18T14:20:35.937Z,0.07
2022-09-18T14:22:15.717Z,0.06
2022-09-18T14:23:55.465Z,0.06
2022-09-18T14:28:54.772Z,0.06
2022-09-18T14:30:34.520Z,0.06
2022-09-18T14:32:14.303Z,0.06
2022-09-18T14:33:54.053Z,0.06
2022-09-18T14:35:33.811Z,0.06
2022-09-18T14:37:13.599Z,0.07
2022-09-18T14:38:53.349Z,0.05
2022-09-18T14:42:12.873Z,0.07
2022-09-18T14:43:52.651Z,0.07
2022-09-18T14:45:32.396Z,0.05
2022-09-18T14:47:12.174Z,0.07
2022-09-18T14:48:51.939Z,0.06
2022-09-18T14:50:31.696Z,0.05
2022-09-18T14:52:11.456Z,0.06
2022-09-18T14:53:51.222Z,0.06
2022-09-18T14:55:30.989Z,0.06
2022-09-18T14:57:10.760Z,0.05
2022-09-18T14:58:50.532Z,0.06
2022-09-18T15:02:10.058Z,0.06
2022-09-18T15:03:49.825Z,0.06
2022-09-18T15:07:09.331Z,0.06
2022-09-18T15:08:49.113Z,0.06
2022-09-18T15:10:28.865Z,0.05
2022-09-18T15:12:08.629Z,0.07
2022-09-18T15:13:48.390Z,0.08
2022-09-18T15:15:28.160Z,0.06
2022-09-18T15:18:47.688Z,0.05
2022-09-18T15:22:07.234Z,0.06
2022-09-18T15:23:46.991Z,0.06
2022-09-18T15:25:26.767Z,0.07
2022-09-18T15:27:06.520Z,0.06
2022-09-18T15:28:46.284Z,0.07
2022-09-18T15:30:26.056Z,0.07
2022-09-18T15:32:05.824Z,0.08
2022-09-18T15:35:25.356Z,0.08
2022-09-18T15:37:05.113Z,0.05
2022-09-18T15:38:44.880Z,0.08
2022-09-18T15:40:24.663Z,0.07
2022-09-18T15:42:04.417Z,0.06
2022-09-18T15:43:44.186Z,0.07
2022-09-18T15:45:23.930Z,0.06
2022-09-18T15:47:03.708Z,0.07
2022-09-18T15:48:43.459Z,0.06
2022-09-18T15:50:23.244Z,0.07
2022-09-18T15:52:02.999Z,0.06
2022-09-18T15:53:42.767Z,0.06
2022-09-18T15:57:02.299Z,0.06
2022-09-18T15:58:42.064Z,0.07
2022-09-18T16:00:21.824Z,0.07
2022-09-18T16:02:01.583Z,0.06
2022-09-18T16:03:41.356Z,0.07
2022-09-18T16:05:21.109Z,0.06
2022-09-18T16:07:00.869Z,0.07
2022-09-18T16:08:40.643Z,0.06
2022-09-18T16:12:00.169Z,0.07
2022-09-18T16:13:39.930Z,0.07
2022-09-18T16:15:19.719Z,0.07
2022-09-18T16:16:59.454Z,0.07
2022-09-18T16:18:39.213Z,0.05
2022-09-18T16:20:18.974Z,0.06
2022-09-18T16:21:58.750Z,0.06
2022-09-18T16:23:38.519Z,0.06
2022-09-18T16:26:58.052Z,0.05
2022-09-18T16:28:37.805Z,0.06
2022-09-18T16:30:17.566Z,0.06
2022-09-18T16:31:57.336Z,0.06
2022-09-18T16:33:37.130Z,0.05
2022-09-18T16:35:16.872Z,0.03
2022-09-18T16:36:56.610Z,0.03
2022-09-18T16:38:36.391Z,0.02
2022-09-18T16:41:55.911Z,0.04
2022-09-18T16:43:35.683Z,0.04
2022-09-18T16:45:15.440Z,0.03
2022-09-18T16:46:55.214Z,0.04
2022-09-18T16:48:34.999Z,0.04
2022-09-18T16:50:14.758Z,0.03
2022-09-18T16:51:54.499Z,0.03
2022-09-18T16:53:34.251Z,0.02
2022-09-18T16:55:14.041Z,0.01
2022-09-18T16:58:33.548Z,0
2022-09-18T17:00:13.323Z,0
2022-09-18T17:01:53.078Z,0
2022-09-18T17:03:32.849Z,0
2022-09-18T17:05:12.611Z,0
2022-09-18T17:06:52.361Z,0
2022-09-18T17:08:32.141Z,0
2022-09-18T17:10:11.906Z,0
2022-09-18T17:11:51.668Z,0
2022-09-18T17:16:50.959Z,0
2022-09-18T17:18:30.715Z,0
2022-09-18T17:20:10.475Z,0
2022-09-18T17:21:50.244Z,0
2022-09-18T17:23:30.003Z,0
2022-09-18T17:25:09.763Z,0
2022-09-18T17:26:49.580Z,0
2022-09-18T17:28:29.295Z,0
2022-09-18T17:30:09.074Z,0
2022-09-18T17:31:48.838Z,0
2022-09-18T17:33:28.594Z,0
2022-09-18T17:35:08.365Z,0
2022-09-18T17:36:48.141Z,0
2022-09-18T17:38:27.884Z,0
2022-09-18T17:40:07.677Z,0
2022-09-18T17:41:47.408Z,0
2022-09-18T17:43:27.174Z,0
2022-09-18T17:45:06.932Z,0
2022-09-18T17:46:46.710Z,0
2022-09-18T17:48:26.468Z,0
2022-09-18T17:50:06.229Z,0
2022-09-18T17:51:46.036Z,0
2022-09-18T17:53:25.761Z,0
2022-09-18T17:55:05.531Z,0
2022-09-18T17:56:45.331Z,0
2022-09-18T17:58:25.056Z,0
2022-09-18T18:01:44.584Z,0
2022-09-18T18:03:24.345Z,0
2022-09-18T18:06:43.878Z,0
2022-09-18T18:08:23.634Z,0
2022-09-18T18:10:03.432Z,0
2022-09-18T18:11:43.168Z,0
2022-09-18T18:13:22.928Z,0
2022-09-18T18:15:02.718Z,0
2022-09-18T18:16:42.462Z,0
2022-09-18T18:18:22.213Z,0
2022-09-18T18:20:01.989Z,0
2022-09-18T18:21:41.756Z,0
2022-09-18T18:23:21.514Z,0
2022-09-18T18:25:01.276Z,0
2022-09-18T18:26:41.062Z,0
2022-09-18T18:28:20.806Z,0
2022-09-18T18:30:00.556Z,0
2022-09-18T18:31:40.381Z,0
2022-09-18T18:33:20.102Z,0
2022-09-18T18:38:19.381Z,0
2022-09-18T18:39:59.143Z,0
2022-09-18T18:41:38.921Z,0
2022-09-18T18:43:18.671Z,0
2022-09-18T18:44:58.451Z,0
2022-09-18T18:46:38.225Z,0
2022-09-18T18:49:57.741Z,0
2022-09-18T18:51:37.497Z,0
2022-09-18T18:53:17.291Z,0
2022-09-18T18:54:57.017Z,0
2022-09-18T18:56:36.780Z,0
2022-09-18T18:58:16.552Z,0
2022-09-18T18:59:56.304Z,0
2022-09-18T19:01:36.078Z,0
2022-09-18T19:03:15.843Z,0
2022-09-18T19:04:55.615Z,0
2022-09-18T19:08:15.185Z,0
2022-09-18T19:09:54.890Z,0
2022-09-18T19:11:34.658Z,0
2022-09-18T19:13:14.429Z,0
2022-09-18T19:14:54.179Z,0
2022-09-18T19:16:33.987Z,0
2022-09-18T19:18:13.727Z,0
2022-09-18T19:19:53.496Z,0
2022-09-18T19:21:33.229Z,0
2022-09-18T19:23:13.006Z,0
2022-09-18T19:24:52.778Z,0
2022-09-18T19:26:32.537Z,0
2022-09-18T19:28:12.399Z,0
2022-09-18T19:29:52.067Z,0
2022-09-18T19:31:31.819Z,0
2022-09-18T19:33:11.580Z,0
2022-09-18T19:34:51.361Z,0
2022-09-18T19:36:31.111Z,0
2022-09-18T19:38:10.896Z,0
2022-09-18T19:41:30.424Z,0
2022-09-18T19:43:10.173Z,0
2022-09-18T19:44:49.947Z,0
2022-09-18T19:46:29.697Z,0
2022-09-18T19:48:09.473Z,0
2022-09-18T19:49:49.241Z,0
2022-09-18T19:51:28.992Z,0
2022-09-18T19:53:08.755Z,0
2022-09-18T19:54:48.525Z,0
2022-09-18T19:56:28.282Z,0
2022-09-18T19:58:08.056Z,0
2022-09-18T19:59:47.854Z,0
2022-09-18T20:01:27.577Z,0
2022-09-18T20:03:07.350Z,0
2022-09-18T20:04:47.151Z,0
2022-09-18T20:06:26.866Z,0
2022-09-18T20:08:06.659Z,0
2022-09-18T20:09:46.410Z,0
2022-09-18T20:11:26.154Z,0
2022-09-18T20:13:05.934Z,0
2022-09-18T20:14:45.687Z,0
2022-09-18T20:18:05.246Z,0
2022-09-18T20:19:45.064Z,0
2022-09-18T20:21:24.752Z,0
2022-09-18T20:23:04.513Z,0
2022-09-18T20:24:44.289Z,0
2022-09-18T20:26:24.042Z,0
2022-09-18T20:28:03.847Z,0
2022-09-18T20:29:43.566Z,0
2022-09-18T20:31:23.339Z,0
2022-09-18T20:34:42.858Z,0
2022-09-18T20:36:22.612Z,0
2022-09-18T20:38:02.385Z,0
2022-09-18T20:39:42.142Z,0
2022-09-18T20:41:21.914Z,0
2022-09-18T20:43:01.662Z,0
2022-09-18T20:44:41.458Z,0
2022-09-18T20:46:21.207Z,0
2022-09-18T20:48:00.970Z,0
2022-09-18T20:49:40.719Z,0
2022-09-18T20:51:20.499Z,0
2022-09-18T20:53:00.256Z,0
2022-09-18T20:54:40.033Z,0
2022-09-18T20:56:19.792Z,0
2022-09-18T20:57:59.550Z,0
2022-09-18T20:59:39.307Z,0
2022-09-18T21:01:19.080Z,0
2022-09-18T21:02:58.851Z,0
2022-09-18T21:04:38.615Z,0
2022-09-18T21:07:58.125Z,0
2022-09-18T21:09:37.918Z,0
2022-09-18T21:11:17.662Z,0
2022-09-18T21:12:57.421Z,0
2022-09-18T21:14:37.185Z,0
2022-09-18T21:16:17.021Z,0
2022-09-18T21:17:56.727Z,0
2022-09-18T21:19:36.471Z,0
2022-09-18T21:21:16.252Z,0
2022-09-18T21:24:35.767Z,0
2022-09-18T21:26:15.571Z,0
2022-09-18T21:27:55.304Z,0
2022-09-18T21:29:35.075Z,0
2022-09-18T21:31:14.838Z,0
2022-09-18T21:32:54.602Z,0
2022-09-18T21:34:34.353Z,0
2022-09-18T21:36:14.144Z,0
2022-09-18T21:37:53.975Z,0
2022-09-18T21:39:33.645Z,0
2022-09-18T21:41:13.409Z,0
2022-09-18T21:42:53.181Z,0
2022-09-18T21:44:32.951Z,0
2022-09-18T21:46:12.711Z,0
2022-09-18T21:47:52.473Z,0
2022-09-18T21:49:32.224Z,0
2022-09-18T21:51:12.021Z,0
2022-09-18T21:52:51.770Z,0
2022-09-18T21:54:31.518Z,0
2022-09-18T21:56:11.301Z,0
2022-09-18T21:59:30.807Z,0
2022-09-18T22:01:10.604Z,0
2022-09-18T22:02:50.336Z,0
2022-09-18T22:04:30.100Z,0
2022-09-18T22:06:09.880Z,0
2022-09-18T22:07:49.648Z,0
2022-09-18T22:09:29.418Z,0
2022-09-18T22:11:09.168Z,0
2022-09-18T22:12:48.933Z,0
2022-09-18T22:16:08.461Z,0
2022-09-18T22:17:48.217Z,0
2022-09-18T22:19:27.977Z,0
2022-09-18T22:21:07.733Z,0
2022-09-18T22:22:47.520Z,0
2022-09-18T22:24:27.279Z,0
2022-09-18T22:26:07.050Z,0
2022-09-18T22:27:46.801Z,0
2022-09-18T22:29:26.559Z,0
2022-09-18T22:31:06.319Z,0
2022-09-18T22:32:46.131Z,0
2022-09-18T22:34:25.865Z,0
2022-09-18T22:36:05.618Z,0
2022-09-18T22:37:45.393Z,0
2022-09-18T22:39:25.162Z,0
2022-09-18T22:41:04.926Z,0
2022-09-18T22:42:44.677Z,0
2022-09-18T22:44:24.458Z,0
2022-09-18T22:46:04.212Z,0
2022-09-18T22:47:43.969Z,0
2022-09-18T22:49:23.755Z,0
2022-09-18T22:56:02.793Z,0
2022-09-18T22:57:42.590Z,0
2022-09-18T22:59:22.322Z,0
2022-09-18T23:01:02.075Z,0
2022-09-18T23:02:41.844Z,0
2022-09-18T23:04:21.609Z,0
2022-09-18T23:06:01.365Z,0
2022-09-18T23:07:41.143Z,0
2022-09-18T23:09:20.907Z,0
2022-09-18T23:11:00.668Z,0
2022-09-18T23:12:40.429Z,0
2022-09-18T23:15:59.945Z,0
2022-09-18T23:17:39.773Z,0
2022-09-18T23:19:19.483Z,0
2022-09-18T23:22:39.017Z,0
2022-09-18T23:24:18.789Z,0
2022-09-18T23:25:58.526Z,0
2022-09-18T23:27:38.313Z,0
2022-09-18T23:29:18.070Z,0
2022-09-18T23:30:57.841Z,0
2022-09-18T23:32:37.600Z,0
2022-09-18T23:34:17.368Z,0
2022-09-18T23:35:57.144Z,0
2022-09-18T23:37:36.895Z,0
2022-09-18T23:39:16.636Z,0
2022-09-18T23:40:56.417Z,0
2022-09-18T23:42:36.176Z,0
2022-09-18T23:44:15.939Z,0
2022-09-18T23:45:55.703Z,0
2022-09-18T23:47:35.458Z,0
2022-09-18T23:50:55.050Z,0
2022-09-18T23:52:34.767Z,0
2022-09-18T23:54:14.535Z,0
2022-09-18T23:55:54.300Z,0
2022-09-18T23:57:34.054Z,0
2022-09-18T23:59:13.813Z,0
